createdAt,value
2022-09-06T00:00:43.272Z,19.87
2022-09-06T00:03:09.766Z,19.80
2022-09-06T00:05:36.638Z,19.73
2022-09-06T00:08:04.323Z,19.73
2022-09-06T00:10:31.388Z,19.63
2022-09-06T00:13:06.195Z,19.64
2022-09-06T00:15:33.430Z,19.58
2022-09-06T00:18:01.497Z,19.48
2022-09-06T00:20:29.858Z,19.44
2022-09-06T00:23:00.824Z,19.40
2022-09-06T00:25:27.958Z,19.35
2022-09-06T00:27:59.380Z,19.17
2022-09-06T00:30:26.914Z,19.21
2022-09-06T00:32:53.825Z,19.27
2022-09-06T00:35:21.662Z,19.22
2022-09-06T00:37:47.985Z,19.10
2022-09-06T00:40:15.076Z,19.15
2022-09-06T00:42:41.565Z,19.12
2022-09-06T00:45:10.126Z,19.12
2022-09-06T00:47:39.484Z,19.10
2022-09-06T00:50:07.334Z,19.09
2022-09-06T00:52:35.113Z,19.03
2022-09-06T00:55:02.121Z,19.03
2022-09-06T00:57:29.863Z,18.97
2022-09-06T00:59:56.668Z,19.00
2022-09-06T01:02:23.366Z,18.94
2022-09-06T01:04:50.557Z,18.85
2022-09-06T01:07:38.945Z,18.91
2022-09-06T01:10:24.021Z,18.93
2022-09-06T01:13:12.173Z,18.91
2022-09-06T01:15:52.931Z,18.90
2022-09-06T01:18:37.259Z,18.86
2022-09-06T01:21:28.252Z,18.83
2022-09-06T01:24:19.213Z,18.84
2022-09-06T01:27:04.674Z,18.82
2022-09-06T01:29:44.684Z,18.76
2022-09-06T01:33:02.601Z,18.78
2022-09-06T01:35:35.749Z,18.76
2022-09-06T01:38:03.121Z,18.69
2022-09-06T01:40:29.724Z,18.68
2022-09-06T01:42:58.056Z,18.68
2022-09-06T01:45:49.761Z,18.63
2022-09-06T01:48:50.300Z,18.67
2022-09-06T01:51:22.736Z,18.67
2022-09-06T01:54:05.025Z,18.62
2022-09-06T01:56:43.225Z,18.66
2022-09-06T01:59:41.662Z,18.65
2022-09-06T02:02:26.334Z,18.60
2022-09-06T02:05:34.226Z,18.66
2022-09-06T02:08:17.327Z,18.64
2022-09-06T02:10:50.582Z,18.59
2022-09-06T02:13:19.999Z,18.51
2022-09-06T02:15:54.442Z,18.47
2022-09-06T02:18:33.788Z,18.52
2022-09-06T02:21:03.211Z,18.53
2022-09-06T02:23:36.360Z,18.47
2022-09-06T02:26:12.712Z,18.51
2022-09-06T02:28:39.776Z,18.47
2022-09-06T02:31:13.699Z,18.52
2022-09-06T02:33:41.549Z,18.50
2022-09-06T02:36:09.565Z,18.50
2022-09-06T02:38:39.479Z,18.47
2022-09-06T02:41:07.273Z,18.42
2022-09-06T02:43:33.727Z,18.28
2022-09-06T02:46:00.214Z,18.23
2022-09-06T02:48:26.730Z,18.32
2022-09-06T02:50:53.216Z,18.23
2022-09-06T02:53:19.641Z,18.09
2022-09-06T02:55:48.101Z,18.31
2022-09-06T02:58:15.149Z,18.26
2022-09-06T03:00:41.512Z,18.23
2022-09-06T03:03:08.457Z,18.24
2022-09-06T03:05:34.864Z,18.21
2022-09-06T03:08:01.325Z,18.24
2022-09-06T03:10:27.930Z,18.23
2022-09-06T03:12:54.440Z,18.16
2022-09-06T03:15:21.454Z,18.23
2022-09-06T03:17:47.803Z,18.13
2022-09-06T03:20:14.562Z,18.13
2022-09-06T03:22:41.471Z,18.10
2022-09-06T03:25:10.474Z,18.09
2022-09-06T03:27:37.921Z,18.10
2022-09-06T03:30:05.804Z,18.01
2022-09-06T03:32:32.166Z,18.05
2022-09-06T03:34:58.598Z,18.10
2022-09-06T03:37:25.093Z,18.02
2022-09-06T03:39:51.504Z,18.01
2022-09-06T03:42:17.977Z,17.97
2022-09-06T03:44:44.568Z,17.93
2022-09-06T03:47:11.237Z,17.96
2022-09-06T03:49:37.827Z,17.95
2022-09-06T03:52:04.410Z,17.92
2022-09-06T03:54:30.834Z,17.93
2022-09-06T03:56:57.519Z,17.95
2022-09-06T03:59:23.849Z,17.90
2022-09-06T04:01:50.462Z,17.89
2022-09-06T04:04:16.885Z,17.85
2022-09-06T04:06:43.306Z,17.86
2022-09-06T04:09:09.639Z,17.83
2022-09-06T04:11:36.003Z,17.77
2022-09-06T04:14:02.695Z,17.79
2022-09-06T04:16:29.357Z,17.78
2022-09-06T04:18:56.257Z,17.80
2022-09-06T04:21:22.645Z,17.84
2022-09-06T04:23:49.259Z,17.91
2022-09-06T04:26:15.717Z,17.92
2022-09-06T04:28:42.129Z,17.86
2022-09-06T04:31:08.558Z,17.87
2022-09-06T04:33:36.676Z,17.93
2022-09-06T04:36:06.586Z,17.85
2022-09-06T04:38:41.092Z,17.93
2022-09-06T04:41:12.384Z,18.02
2022-09-06T04:43:38.950Z,18.01
2022-09-06T04:46:28.834Z,17.93
2022-09-06T04:48:56.226Z,17.88
2022-09-06T04:51:23.880Z,17.96
2022-09-06T04:53:51.370Z,17.96
2022-09-06T04:56:20.807Z,17.99
2022-09-06T04:58:48.228Z,18.01
2022-09-06T05:01:15.155Z,17.82
2022-09-06T05:03:41.923Z,17.87
2022-09-06T05:06:14.049Z,17.95
2022-09-06T05:08:41.518Z,17.91
2022-09-06T05:11:09.026Z,17.90
2022-09-06T05:13:35.809Z,17.96
2022-09-06T05:16:03.816Z,17.96
2022-09-06T05:18:30.408Z,17.92
2022-09-06T05:20:57.476Z,17.97
2022-09-06T05:23:23.850Z,18.06
2022-09-06T05:25:50.633Z,18.06
2022-09-06T05:28:17.821Z,18.19
2022-09-06T05:30:44.554Z,18.00
2022-09-06T05:33:12.602Z,17.96
2022-09-06T05:35:39.310Z,17.98
2022-09-06T05:38:05.800Z,18.01
2022-09-06T05:40:32.284Z,18.07
2022-09-06T05:42:58.767Z,18.04
2022-09-06T05:45:25.247Z,18.04
2022-09-06T05:47:52.076Z,18.08
2022-09-06T05:50:18.505Z,18.09
2022-09-06T05:52:45.155Z,18.12
2022-09-06T05:55:11.708Z,18.20
2022-09-06T05:57:38.171Z,18.14
2022-09-06T06:00:05.675Z,18.23
2022-09-06T06:02:32.244Z,18.20
2022-09-06T06:04:59.006Z,18.09
2022-09-06T06:07:25.423Z,18.06
2022-09-06T06:09:51.908Z,18.20
2022-09-06T06:12:18.440Z,18.20
2022-09-06T06:14:44.891Z,18.37
2022-09-06T06:17:11.228Z,18.38
2022-09-06T06:19:37.637Z,18.28
2022-09-06T06:22:04.612Z,18.36
2022-09-06T06:24:31.080Z,18.40
2022-09-06T06:26:57.502Z,18.42
2022-09-06T06:29:24.069Z,18.59
2022-09-06T06:31:50.524Z,18.59
2022-09-06T06:34:16.970Z,18.56
2022-09-06T06:36:43.369Z,18.61
2022-09-06T06:39:10.206Z,18.48
2022-09-06T06:41:36.589Z,18.59
2022-09-06T06:44:04.525Z,18.67
2022-09-06T06:46:40.198Z,18.68
2022-09-06T06:49:06.667Z,18.77
2022-09-06T06:51:34.435Z,18.90
2022-09-06T06:54:00.787Z,19.01
2022-09-06T06:56:35.443Z,19.08
2022-09-06T06:59:04.261Z,19.02
2022-09-06T07:01:32.823Z,19.16
2022-09-06T07:03:59.746Z,19.27
2022-09-06T07:09:14.257Z,19.34
2022-09-06T07:11:40.613Z,19.43
2022-09-06T07:14:06.989Z,19.51
2022-09-06T07:16:33.805Z,19.53
2022-09-06T07:19:00.226Z,19.57
2022-09-06T07:21:42.206Z,19.65
2022-09-06T07:24:09.391Z,19.56
2022-09-06T07:26:37.608Z,19.58
2022-09-06T07:29:05.646Z,19.60
2022-09-06T07:34:19.509Z,19.68
2022-09-06T07:36:45.929Z,19.74
2022-09-06T07:39:12.612Z,19.82
2022-09-06T07:41:39.103Z,19.89
2022-09-06T07:44:05.514Z,19.97
2022-09-06T07:46:32.031Z,20.11
2022-09-06T07:48:58.413Z,20.13
2022-09-06T07:51:24.779Z,20.16
2022-09-06T07:54:12.928Z,20.20
2022-09-06T07:56:41.720Z,20.18
2022-09-06T07:59:08.334Z,20.17
2022-09-06T08:01:36.204Z,20.19
2022-09-06T08:04:13.433Z,20.18
2022-09-06T08:09:31.827Z,20.26
2022-09-06T08:11:58.547Z,20.39
2022-09-06T08:14:25.106Z,20.46
2022-09-06T08:16:51.550Z,20.30
2022-09-06T08:19:18.268Z,20.34
2022-09-06T08:21:44.682Z,20.33
2022-09-06T08:24:11.127Z,20.40
2022-09-06T08:26:39.391Z,20.55
2022-09-06T08:29:07.165Z,20.53
2022-09-06T08:31:35.423Z,20.75
2022-09-06T08:34:02.548Z,20.64
2022-09-06T08:36:30.178Z,20.67
2022-09-06T08:39:03.584Z,20.74
2022-09-06T08:41:33.972Z,20.77
2022-09-06T08:47:03.450Z,20.68
2022-09-06T08:49:33.759Z,20.67
2022-09-06T08:52:12.742Z,20.72
2022-09-06T08:54:41.058Z,20.75
2022-09-06T08:57:48.818Z,20.85
2022-09-06T09:00:15.734Z,21.23
2022-09-06T09:02:49.137Z,21.27
2022-09-06T09:05:30.155Z,21.22
2022-09-06T09:08:02.345Z,21.33
2022-09-06T09:10:31.748Z,21.42
2022-09-06T09:13:02.551Z,21.51
2022-09-06T09:15:29.228Z,21.61
2022-09-06T09:17:56.010Z,21.64
2022-09-06T09:20:22.974Z,21.81
2022-09-06T09:22:49.593Z,21.92
2022-09-06T09:25:21.667Z,22.15
2022-09-06T09:27:49.876Z,22.36
2022-09-06T09:33:21.855Z,22.51
2022-09-06T09:35:48.365Z,22.55
2022-09-06T09:38:33.074Z,22.66
2022-09-06T09:41:06.805Z,22.62
2022-09-06T09:43:36.863Z,22.69
2022-09-06T09:46:22.095Z,22.98
2022-09-06T09:49:10.849Z,23.25
2022-09-06T09:51:38.876Z,23.59
2022-09-06T09:54:08.638Z,23.75
2022-09-06T09:56:40.046Z,23.69
2022-09-06T09:59:19.592Z,23.75
2022-09-06T10:01:46.266Z,24.11
2022-09-06T10:07:21.237Z,24.41
2022-09-06T10:09:50.033Z,24.31
2022-09-06T10:12:18.410Z,24.32
2022-09-06T10:14:47.506Z,24.41
2022-09-06T10:17:41.893Z,24.46
2022-09-06T10:20:11.136Z,24.53
2022-09-06T10:22:46.490Z,24.60
2022-09-06T10:25:19.077Z,24.63
2022-09-06T10:28:12.280Z,24.53
2022-09-06T10:30:54.402Z,24.60
2022-09-06T10:33:27.286Z,24.94
2022-09-06T10:35:58.482Z,25.07
2022-09-06T10:38:37.465Z,25.20
2022-09-06T10:41:14.240Z,25.26
2022-09-06T10:43:52.193Z,25.21
2022-09-06T10:46:25.218Z,25.10
2022-09-06T10:48:52.980Z,25.13
2022-09-06T10:51:41.079Z,25.02
2022-09-06T10:54:13.566Z,24.93
2022-09-06T10:56:52.039Z,24.92
2022-09-06T10:59:41.407Z,25.00
2022-09-06T11:02:38.729Z,25.01
2022-09-06T11:10:53.176Z,25.37
2022-09-06T11:13:21.207Z,25.51
2022-09-06T11:15:56.617Z,25.57
2022-09-06T11:18:36.672Z,25.79
2022-09-06T11:21:26.165Z,25.86
2022-09-06T11:24:01.066Z,26.10
2022-09-06T11:26:43.086Z,26.59
2022-09-06T11:29:19.135Z,26.48
2022-09-06T11:34:41.549Z,26.30
2022-09-06T11:37:22.406Z,26.22
2022-09-06T11:40:30.422Z,26.26
2022-09-06T11:42:56.817Z,26.26
2022-09-06T11:45:50.708Z,26.04
2022-09-06T11:48:26.295Z,25.93
2022-09-06T11:51:00.758Z,26.00
2022-09-06T11:53:34.369Z,25.94
2022-09-06T11:56:00.717Z,26.02
2022-09-06T11:58:30.385Z,26.04
2022-09-06T12:01:12.049Z,26.03
2022-09-06T12:06:33.316Z,26.02
2022-09-06T12:09:00.048Z,26.20
2022-09-06T12:11:45.858Z,26.21
2022-09-06T12:14:33.796Z,26.17
2022-09-06T12:17:00.086Z,26.17
2022-09-06T12:19:56.281Z,26.17
2022-09-06T12:22:28.896Z,26.11
2022-09-06T12:25:24.604Z,26.26
2022-09-06T12:28:00.074Z,26.25
2022-09-06T12:30:36.398Z,26.25
2022-09-06T12:33:08.255Z,26.25
2022-09-06T12:38:25.657Z,26.48
2022-09-06T12:40:53.249Z,26.38
2022-09-06T12:43:20.358Z,26.49
2022-09-06T12:45:50.244Z,26.66
2022-09-06T12:48:36.911Z,26.67
2022-09-06T12:51:09.579Z,26.86
2022-09-06T12:53:36.014Z,27.01
2022-09-06T12:56:05.245Z,27.15
2022-09-06T12:58:32.048Z,27.26
2022-09-06T13:01:10.792Z,27.76
2022-09-06T13:04:05.519Z,27.77
2022-09-06T13:06:36.444Z,27.64
2022-09-06T13:09:03.028Z,27.50
2022-09-06T13:11:35.689Z,27.51
2022-09-06T13:14:14.000Z,27.40
2022-09-06T13:16:47.199Z,27.31
2022-09-06T13:19:17.090Z,27.27
2022-09-06T13:21:47.230Z,27.09
2022-09-06T13:24:23.700Z,27.04
2022-09-06T13:26:50.920Z,26.98
2022-09-06T13:29:17.195Z,26.91
2022-09-06T13:31:54.127Z,26.84
2022-09-06T13:34:29.412Z,26.94
2022-09-06T13:37:04.367Z,27.11
2022-09-06T13:39:37.909Z,27.45
2022-09-06T13:42:23.240Z,27.40
2022-09-06T13:44:49.900Z,27.39
2022-09-06T13:47:16.727Z,27.32
2022-09-06T13:49:43.227Z,27.26
2022-09-06T13:52:10.154Z,27.26
2022-09-06T13:54:36.960Z,27.36
2022-09-06T13:57:04.395Z,27.57
2022-09-06T13:59:31.183Z,27.44
2022-09-06T14:02:12.666Z,27.23
2022-09-06T14:04:39.153Z,27.19
2022-09-06T14:07:06.045Z,27.19
2022-09-06T14:09:32.533Z,27.25
2022-09-06T14:11:59.038Z,27.28
2022-09-06T14:14:25.774Z,27.36
2022-09-06T14:16:52.124Z,27.39
2022-09-06T14:19:18.530Z,27.41
2022-09-06T14:21:45.128Z,27.41
2022-09-06T14:24:11.904Z,27.55
2022-09-06T14:26:38.792Z,27.48
2022-09-06T14:29:05.679Z,27.35
2022-09-06T14:31:32.413Z,27.47
2022-09-06T14:33:59.715Z,27.55
2022-09-06T14:36:28.216Z,27.54
2022-09-06T14:38:56.371Z,27.52
2022-09-06T14:41:23.107Z,27.45
2022-09-06T14:43:51.849Z,27.45
2022-09-06T14:46:20.398Z,27.47
2022-09-06T14:48:46.776Z,27.47
2022-09-06T14:51:15.417Z,27.43
2022-09-06T14:53:43.389Z,27.46
2022-09-06T14:56:11.890Z,27.51
2022-09-06T14:58:40.323Z,27.49
2022-09-06T15:01:28.490Z,27.45
2022-09-06T15:03:57.886Z,27.39
2022-09-06T15:06:25.897Z,27.39
2022-09-06T15:08:56.919Z,27.35
2022-09-06T15:11:34.316Z,27.35
2022-09-06T15:14:05.245Z,27.36
2022-09-06T15:16:32.523Z,27.37
2022-09-06T15:18:59.138Z,27.37
2022-09-06T15:21:25.962Z,27.41
2022-09-06T15:23:52.863Z,27.65
2022-09-06T15:26:19.849Z,27.57
2022-09-06T15:28:46.471Z,27.59
2022-09-06T15:31:13.758Z,27.58
2022-09-06T15:33:40.426Z,27.59
2022-09-06T15:36:09.373Z,27.68
2022-09-06T15:38:42.776Z,27.72
2022-09-06T15:41:12.583Z,27.55
2022-09-06T15:43:41.842Z,27.49
2022-09-06T15:46:09.455Z,27.27
2022-09-06T15:48:45.169Z,27.48
2022-09-06T15:51:13.853Z,27.42
2022-09-06T15:53:40.693Z,27.43
2022-09-06T15:56:09.384Z,27.58
2022-09-06T15:58:35.826Z,27.60
2022-09-06T16:01:12.073Z,27.42
2022-09-06T16:03:41.707Z,27.56
2022-09-06T16:06:27.421Z,27.54
2022-09-06T16:09:00.438Z,27.45
2022-09-06T16:11:28.702Z,27.31
2022-09-06T16:13:55.736Z,27.18
2022-09-06T16:16:22.424Z,27.20
2022-09-06T16:18:49.212Z,27.10
2022-09-06T16:21:22.387Z,27.04
2022-09-06T16:23:54.166Z,27.09
2022-09-06T16:26:22.803Z,27.04
2022-09-06T16:28:51.350Z,27.00
2022-09-06T16:31:18.888Z,26.93
2022-09-06T16:33:45.309Z,26.83
2022-09-06T16:36:12.799Z,26.83
2022-09-06T16:38:39.944Z,26.95
2022-09-06T16:41:16.398Z,26.82
2022-09-06T16:43:44.059Z,26.79
2022-09-06T16:46:10.886Z,26.69
2022-09-06T16:48:37.554Z,26.63
2022-09-06T16:51:16.073Z,26.58
2022-09-06T16:53:44.922Z,26.57
2022-09-06T16:56:13.140Z,26.42
2022-09-06T16:58:39.701Z,26.48
2022-09-06T17:01:06.827Z,26.41
2022-09-06T17:03:34.923Z,26.38
2022-09-06T17:06:01.470Z,26.31
2022-09-06T17:08:28.006Z,26.15
2022-09-06T17:10:54.685Z,26.05
2022-09-06T17:13:21.385Z,25.89
2022-09-06T17:15:54.694Z,25.84
2022-09-06T17:18:24.339Z,25.74
2022-09-06T17:20:58.726Z,25.64
2022-09-06T17:23:25.296Z,25.59
2022-09-06T17:25:51.951Z,25.63
2022-09-06T17:28:18.581Z,25.57
2022-09-06T17:30:45.065Z,25.62
2022-09-06T17:33:11.855Z,25.42
2022-09-06T17:35:38.258Z,25.40
2022-09-06T17:38:04.880Z,25.23
2022-09-06T17:40:31.245Z,25.21
2022-09-06T17:42:57.577Z,25.09
2022-09-06T17:45:24.002Z,24.97
2022-09-06T17:47:50.411Z,24.95
2022-09-06T17:50:16.774Z,24.86
2022-09-06T17:52:43.211Z,24.85
2022-09-06T17:55:09.551Z,24.80
2022-09-06T17:57:36.290Z,24.72
2022-09-06T18:00:03.710Z,24.64
2022-09-06T18:02:30.042Z,24.48
2022-09-06T18:05:00.111Z,24.46
2022-09-06T18:07:26.887Z,24.37
2022-09-06T18:09:53.220Z,24.23
2022-09-06T18:12:19.637Z,24.17
2022-09-06T18:14:46.122Z,24.11
2022-09-06T18:17:12.469Z,24.09
2022-09-06T18:19:38.822Z,24.01
2022-09-06T18:22:05.237Z,23.97
2022-09-06T18:24:31.916Z,23.94
2022-09-06T18:26:58.269Z,23.88
2022-09-06T18:29:25.014Z,23.86
2022-09-06T18:31:51.446Z,23.81
2022-09-06T18:34:17.947Z,23.74
2022-09-06T18:36:44.774Z,23.73
2022-09-06T18:39:12.649Z,23.63
2022-09-06T18:41:39.054Z,23.56
2022-09-06T18:44:06.370Z,23.47
2022-09-06T18:46:35.044Z,23.45
2022-09-06T18:49:01.752Z,23.38
2022-09-06T18:51:28.573Z,23.36
2022-09-06T18:53:57.646Z,23.33
2022-09-06T18:56:25.037Z,23.31
2022-09-06T18:58:57.328Z,23.23
2022-09-06T19:01:24.931Z,23.24
2022-09-06T19:03:51.388Z,23.14
2022-09-06T19:06:20.419Z,23.13
2022-09-06T19:08:48.313Z,23.15
2022-09-06T19:11:17.139Z,23.10
2022-09-06T19:13:45.540Z,23.07
2022-09-06T19:16:14.003Z,23.01
2022-09-06T19:18:41.546Z,22.99
2022-09-06T19:21:13.321Z,22.89
2022-09-06T19:23:44.967Z,22.88
2022-09-06T19:26:17.519Z,22.82
2022-09-06T19:28:52.494Z,22.81
2022-09-06T19:31:19.505Z,22.79
2022-09-06T19:33:49.141Z,22.77
2022-09-06T19:36:16.897Z,22.74
2022-09-06T19:41:31.279Z,22.61
2022-09-06T19:43:58.795Z,22.62
2022-09-06T19:46:25.585Z,22.54
2022-09-06T19:48:53.833Z,22.50
2022-09-06T19:51:20.746Z,22.43
2022-09-06T19:53:49.807Z,22.36
2022-09-06T19:56:18.550Z,22.35
2022-09-06T19:58:45.271Z,22.26
2022-09-06T20:01:13.309Z,22.20
2022-09-06T20:03:39.676Z,22.14
2022-09-06T20:06:06.529Z,22.09
2022-09-06T20:08:34.317Z,22.08
2022-09-06T20:11:01.533Z,22.08
2022-09-06T20:13:29.864Z,22.03
2022-09-06T20:15:56.713Z,22.03
2022-09-06T20:18:23.408Z,22.03
2022-09-06T20:20:55.164Z,22.00
2022-09-06T20:23:22.506Z,21.97
2022-09-06T20:25:58.244Z,21.87
2022-09-06T20:28:24.609Z,21.78
2022-09-06T20:30:51.203Z,21.80
2022-09-06T20:33:17.985Z,21.79
2022-09-06T20:35:52.948Z,21.76
2022-09-06T20:38:19.616Z,21.75
2022-09-06T20:40:46.014Z,21.76
2022-09-06T20:43:12.416Z,21.68
2022-09-06T20:45:38.945Z,21.64
2022-09-06T20:48:05.518Z,21.65
2022-09-06T20:50:32.105Z,21.62
2022-09-06T20:52:58.544Z,21.58
2022-09-06T20:55:25.127Z,21.58
2022-09-06T20:57:51.604Z,21.58
2022-09-06T21:00:18.020Z,21.63
2022-09-06T21:02:44.345Z,21.69
2022-09-06T21:05:11.046Z,21.68
2022-09-06T21:07:37.767Z,21.55
2022-09-06T21:10:04.538Z,21.49
2022-09-06T21:12:30.948Z,21.41
2022-09-06T21:14:57.698Z,21.36
2022-09-06T21:17:24.292Z,21.33
2022-09-06T21:19:50.779Z,21.29
2022-09-06T21:22:17.191Z,21.28
2022-09-06T21:24:43.793Z,21.27
2022-09-06T21:27:10.430Z,21.33
2022-09-06T21:29:36.847Z,21.22
2022-09-06T21:32:03.491Z,21.29
2022-09-06T21:34:29.822Z,21.21
2022-09-06T21:36:56.283Z,21.18
2022-09-06T21:39:22.628Z,21.15
2022-09-06T21:41:49.171Z,21.06
2022-09-06T21:44:15.501Z,21.05
2022-09-06T21:46:42.289Z,21.08
2022-09-06T21:49:11.871Z,21.04
2022-09-06T21:51:38.498Z,20.91
2022-09-06T21:54:05.754Z,20.91
2022-09-06T21:56:33.766Z,20.97
2022-09-06T21:59:00.204Z,20.92
2022-09-06T22:01:29.387Z,20.85
2022-09-06T22:03:55.797Z,20.80
2022-09-06T22:06:24.609Z,20.80
2022-09-06T22:08:52.067Z,20.72
2022-09-06T22:11:24.584Z,20.73
2022-09-06T22:13:51.910Z,20.72
2022-09-06T22:16:20.777Z,20.59
2022-09-06T22:18:48.301Z,20.66
2022-09-06T22:21:17.697Z,20.63
2022-09-06T22:23:56.489Z,20.63
2022-09-06T22:26:24.222Z,20.53
2022-09-06T22:29:01.915Z,20.63
2022-09-06T22:31:30.205Z,20.63
2022-09-06T22:33:56.754Z,20.55
2022-09-06T22:36:24.025Z,20.53
2022-09-06T22:38:51.635Z,20.44
2022-09-06T22:41:18.203Z,20.47
2022-09-06T22:43:44.974Z,20.41
2022-09-06T22:46:11.693Z,20.41
2022-09-06T22:48:38.404Z,20.38
2022-09-06T22:51:05.820Z,20.33
2022-09-06T22:53:32.977Z,20.28
2022-09-06T22:55:59.840Z,20.22
2022-09-06T22:58:26.633Z,20.27
2022-09-06T23:00:53.958Z,20.24
2022-09-06T23:03:20.729Z,20.24
2022-09-06T23:05:47.245Z,20.14
2022-09-06T23:08:14.335Z,20.12
2022-09-06T23:10:42.202Z,20.14
2022-09-06T23:13:09.878Z,20.10
2022-09-06T23:15:38.127Z,20.09
2022-09-06T23:18:04.926Z,20.04
2022-09-06T23:20:31.715Z,19.96
2022-09-06T23:22:58.585Z,19.96
2022-09-06T23:25:24.906Z,19.96
2022-09-06T23:27:51.651Z,19.85
2022-09-06T23:30:18.906Z,19.86
2022-09-06T23:32:45.296Z,19.88
2022-09-06T23:35:11.749Z,19.89
2022-09-06T23:37:40.778Z,19.86
2022-09-06T23:40:09.258Z,19.80
2022-09-06T23:42:39.064Z,19.80
2022-09-06T23:45:07.117Z,19.78
2022-09-06T23:47:34.388Z,19.65
2022-09-06T23:50:01.031Z,19.71
2022-09-06T23:52:27.378Z,19.62
2022-09-06T23:54:54.082Z,19.61
2022-09-06T23:57:21.050Z,19.67
2022-09-06T23:59:47.990Z,19.57
